sensor_id;sensor_type;location;lat;lon;timestamp;temperature;humidity
64715;DHT22;51144;53.002;6.506;2023-02-26T00:00:08;1.70;99.90
64715;DHT22;51144;53.002;6.506;2023-02-26T00:02:42;1.60;99.90
64715;DHT22;51144;53.002;6.506;2023-02-26T00:05:12;1.60;99.90
64715;DHT22;51144;53.002;6.506;2023-02-26T00:07:38;1.50;99.90
64715;DHT22;51144;53.002;6.506;2023-02-26T00:10:04;1.40;99.90
64715;DHT22;51144;53.002;6.506;2023-02-26T00:12:30;1.40;99.90
64715;DHT22;51144;53.002;6.506;2023-02-26T00:14:56;1.40;99.90
64715;DHT22;51144;53.002;6.506;2023-02-26T00:19:47;1.30;99.90
64715;DHT22;51144;53.002;6.506;2023-02-26T00:22:13;1.20;99.90
64715;DHT22;51144;53.002;6.506;2023-02-26T00:24:38;1.20;99.90
64715;DHT22;51144;53.002;6.506;2023-02-26T00:27:04;1.20;99.90
64715;DHT22;51144;53.002;6.506;2023-02-26T00:29:29;1.30;99.90
64715;DHT22;51144;53.002;6.506;2023-02-26T00:31:55;1.50;99.90
64715;DHT22;51144;53.002;6.506;2023-02-26T00:34:21;1.50;99.90
64715;DHT22;51144;53.002;6.506;2023-02-26T00:39:34;1.50;99.90
64715;DHT22;51144;53.002;6.506;2023-02-26T00:42:03;1.50;99.90
64715;DHT22;51144;53.002;6.506;2023-02-26T00:44:29;1.50;99.90
64715;DHT22;51144;53.002;6.506;2023-02-26T00:46:58;1.60;99.90
64715;DHT22;51144;53.002;6.506;2023-02-26T00:49:36;1.50;99.90
64715;DHT22;51144;53.002;6.506;2023-02-26T00:52:05;1.50;99.90
64715;DHT22;51144;53.002;6.506;2023-02-26T00:54:35;1.60;99.90
64715;DHT22;51144;53.002;6.506;2023-02-26T00:57:00;1.50;99.90
64715;DHT22;51144;53.002;6.506;2023-02-26T00:59:28;1.50;99.90
64715;DHT22;51144;53.002;6.506;2023-02-26T01:01:54;1.50;99.90
64715;DHT22;51144;53.002;6.506;2023-02-26T01:04:20;1.50;99.90
64715;DHT22;51144;53.002;6.506;2023-02-26T01:06:47;1.50;99.90
64715;DHT22;51144;53.002;6.506;2023-02-26T01:09:26;1.40;99.90
64715;DHT22;51144;53.002;6.506;2023-02-26T01:11:53;1.40;99.90
64715;DHT22;51144;53.002;6.506;2023-02-26T01:14:19;1.40;99.90
64715;DHT22;51144;53.002;6.506;2023-02-26T01:16:52;1.40;99.90
64715;DHT22;51144;53.002;6.506;2023-02-26T01:20:22;1.40;99.90
64715;DHT22;51144;53.002;6.506;2023-02-26T01:25:05;1.40;99.90
64715;DHT22;51144;53.002;6.506;2023-02-26T01:27:32;1.30;99.90
64715;DHT22;51144;53.002;6.506;2023-02-26T01:29:57;1.40;99.90
64715;DHT22;51144;53.002;6.506;2023-02-26T01:32:24;1.40;99.90
64715;DHT22;51144;53.002;6.506;2023-02-26T01:34:57;1.40;99.90
64715;DHT22;51144;53.002;6.506;2023-02-26T01:42:22;1.20;99.90
64715;DHT22;51144;53.002;6.506;2023-02-26T01:49:43;1.10;99.90
64715;DHT22;51144;53.002;6.506;2023-02-26T01:54:53;1.00;99.90
64715;DHT22;51144;53.002;6.506;2023-02-26T01:57:19;1.00;99.90
64715;DHT22;51144;53.002;6.506;2023-02-26T01:59:46;1.00;99.90
64715;DHT22;51144;53.002;6.506;2023-02-26T02:02:15;0.90;99.90
64715;DHT22;51144;53.002;6.506;2023-02-26T02:04:41;0.80;99.90
64715;DHT22;51144;53.002;6.506;2023-02-26T02:07:07;0.80;99.90
64715;DHT22;51144;53.002;6.506;2023-02-26T02:09:33;0.80;99.90
64715;DHT22;51144;53.002;6.506;2023-02-26T02:17:11;0.70;99.90
64715;DHT22;51144;53.002;6.506;2023-02-26T02:19:42;0.70;99.90
64715;DHT22;51144;53.002;6.506;2023-02-26T02:22:31;0.70;99.90
64715;DHT22;51144;53.002;6.506;2023-02-26T02:27:40;0.60;99.90
64715;DHT22;51144;53.002;6.506;2023-02-26T02:30:23;0.60;99.90
64715;DHT22;51144;53.002;6.506;2023-02-26T02:33:04;0.60;99.90
64715;DHT22;51144;53.002;6.506;2023-02-26T02:35:45;0.50;99.90
64715;DHT22;51144;53.002;6.506;2023-02-26T02:38:18;0.50;99.90
64715;DHT22;51144;53.002;6.506;2023-02-26T02:40:47;0.40;99.90
64715;DHT22;51144;53.002;6.506;2023-02-26T02:43:17;0.40;99.90
64715;DHT22;51144;53.002;6.506;2023-02-26T02:45:46;0.40;99.90
64715;DHT22;51144;53.002;6.506;2023-02-26T02:48:35;0.30;99.90
64715;DHT22;51144;53.002;6.506;2023-02-26T02:51:12;0.30;99.90
64715;DHT22;51144;53.002;6.506;2023-02-26T02:53:42;0.20;99.90
64715;DHT22;51144;53.002;6.506;2023-02-26T02:58:39;0.20;99.90
64715;DHT22;51144;53.002;6.506;2023-02-26T03:01:06;0.10;99.90
64715;DHT22;51144;53.002;6.506;2023-02-26T03:03:51;0.20;99.90
64715;DHT22;51144;53.002;6.506;2023-02-26T03:06:19;0.10;99.90
64715;DHT22;51144;53.002;6.506;2023-02-26T03:08:45;0.10;99.90
64715;DHT22;51144;53.002;6.506;2023-02-26T03:11:12;0.00;99.90
64715;DHT22;51144;53.002;6.506;2023-02-26T03:13:37;0.00;99.90
64715;DHT22;51144;53.002;6.506;2023-02-26T03:21:19;-0.10;99.90
64715;DHT22;51144;53.002;6.506;2023-02-26T03:23:49;-0.10;99.90
64715;DHT22;51144;53.002;6.506;2023-02-26T03:26:22;-0.10;99.90
64715;DHT22;51144;53.002;6.506;2023-02-26T03:31:16;-0.20;99.90
64715;DHT22;51144;53.002;6.506;2023-02-26T03:36:20;-0.30;99.90
64715;DHT22;51144;53.002;6.506;2023-02-26T03:38:57;-0.30;99.90
64715;DHT22;51144;53.002;6.506;2023-02-26T03:41:32;-0.30;99.90
64715;DHT22;51144;53.002;6.506;2023-02-26T03:44:00;-0.40;99.90
64715;DHT22;51144;53.002;6.506;2023-02-26T03:46:28;-0.40;99.90
64715;DHT22;51144;53.002;6.506;2023-02-26T03:48:55;-0.40;99.90
64715;DHT22;51144;53.002;6.506;2023-02-26T03:51:21;-0.40;99.90
64715;DHT22;51144;53.002;6.506;2023-02-26T03:53:53;-0.50;99.90
64715;DHT22;51144;53.002;6.506;2023-02-26T03:56:36;-0.50;99.90
64715;DHT22;51144;53.002;6.506;2023-02-26T03:59:03;-0.50;99.90
64715;DHT22;51144;53.002;6.506;2023-02-26T04:01:37;-0.50;99.90
64715;DHT22;51144;53.002;6.506;2023-02-26T04:04:08;-0.50;99.90
64715;DHT22;51144;53.002;6.506;2023-02-26T04:06:34;-0.50;99.90
64715;DHT22;51144;53.002;6.506;2023-02-26T04:09:01;-0.50;99.90
64715;DHT22;51144;53.002;6.506;2023-02-26T04:11:27;-0.60;99.90
64715;DHT22;51144;53.002;6.506;2023-02-26T04:13:53;-0.60;99.90
64715;DHT22;51144;53.002;6.506;2023-02-26T04:16:19;-0.60;99.90
64715;DHT22;51144;53.002;6.506;2023-02-26T04:18:45;-0.60;99.90
64715;DHT22;51144;53.002;6.506;2023-02-26T04:21:11;-0.60;99.90
64715;DHT22;51144;53.002;6.506;2023-02-26T04:23:37;-0.60;99.90
64715;DHT22;51144;53.002;6.506;2023-02-26T04:26:03;-0.60;99.90
64715;DHT22;51144;53.002;6.506;2023-02-26T04:28:28;-0.60;99.90
64715;DHT22;51144;53.002;6.506;2023-02-26T04:30:54;-0.60;99.90
64715;DHT22;51144;53.002;6.506;2023-02-26T04:33:20;-0.60;99.90
64715;DHT22;51144;53.002;6.506;2023-02-26T04:35:45;-0.60;99.90
64715;DHT22;51144;53.002;6.506;2023-02-26T04:38:11;-0.60;99.90
64715;DHT22;51144;53.002;6.506;2023-02-26T04:40:36;-0.60;99.90
64715;DHT22;51144;53.002;6.506;2023-02-26T04:43:02;-0.60;99.90
64715;DHT22;51144;53.002;6.506;2023-02-26T04:45:27;-0.60;99.90
64715;DHT22;51144;53.002;6.506;2023-02-26T04:47:53;-0.60;99.90
64715;DHT22;51144;53.002;6.506;2023-02-26T04:50:18;-0.60;99.90
64715;DHT22;51144;53.002;6.506;2023-02-26T04:52:44;-0.70;99.90
64715;DHT22;51144;53.002;6.506;2023-02-26T04:55:10;-0.70;99.90
64715;DHT22;51144;53.002;6.506;2023-02-26T04:57:35;-0.70;99.90
64715;DHT22;51144;53.002;6.506;2023-02-26T05:00:01;-0.70;99.90
64715;DHT22;51144;53.002;6.506;2023-02-26T05:02:26;-0.70;99.90
64715;DHT22;51144;53.002;6.506;2023-02-26T05:04:52;-0.70;99.90
64715;DHT22;51144;53.002;6.506;2023-02-26T05:07:17;-0.70;99.90
64715;DHT22;51144;53.002;6.506;2023-02-26T05:09:43;-0.70;99.90
64715;DHT22;51144;53.002;6.506;2023-02-26T05:12:08;-0.70;99.90
64715;DHT22;51144;53.002;6.506;2023-02-26T05:14:34;-0.70;99.90
64715;DHT22;51144;53.002;6.506;2023-02-26T05:16:59;-0.70;99.90
64715;DHT22;51144;53.002;6.506;2023-02-26T05:19:25;-0.70;99.90
64715;DHT22;51144;53.002;6.506;2023-02-26T05:21:50;-0.80;99.90
64715;DHT22;51144;53.002;6.506;2023-02-26T05:24:16;-0.80;99.90
64715;DHT22;51144;53.002;6.506;2023-02-26T05:26:41;-0.80;99.90
64715;DHT22;51144;53.002;6.506;2023-02-26T05:29:07;-0.80;99.90
64715;DHT22;51144;53.002;6.506;2023-02-26T05:31:32;-0.80;99.90
64715;DHT22;51144;53.002;6.506;2023-02-26T05:33:58;-0.80;99.90
64715;DHT22;51144;53.002;6.506;2023-02-26T05:36:24;-0.80;99.90
64715;DHT22;51144;53.002;6.506;2023-02-26T05:38:49;-0.80;99.90
64715;DHT22;51144;53.002;6.506;2023-02-26T05:41:15;-0.80;99.90
64715;DHT22;51144;53.002;6.506;2023-02-26T05:43:40;-0.80;99.90
64715;DHT22;51144;53.002;6.506;2023-02-26T05:46:06;-0.90;99.90
64715;DHT22;51144;53.002;6.506;2023-02-26T05:48:32;-0.90;99.90
64715;DHT22;51144;53.002;6.506;2023-02-26T05:50:57;-0.90;99.90
64715;DHT22;51144;53.002;6.506;2023-02-26T05:53:23;-0.90;99.90
64715;DHT22;51144;53.002;6.506;2023-02-26T05:55:48;-0.80;99.90
64715;DHT22;51144;53.002;6.506;2023-02-26T05:58:14;-0.80;99.90
64715;DHT22;51144;53.002;6.506;2023-02-26T06:00:40;-0.70;99.90
64715;DHT22;51144;53.002;6.506;2023-02-26T06:03:06;-0.70;99.90
64715;DHT22;51144;53.002;6.506;2023-02-26T06:05:31;-0.70;99.90
64715;DHT22;51144;53.002;6.506;2023-02-26T06:07:57;-0.70;99.90
64715;DHT22;51144;53.002;6.506;2023-02-26T06:10:23;-0.70;99.90
64715;DHT22;51144;53.002;6.506;2023-02-26T06:12:48;-0.80;99.90
64715;DHT22;51144;53.002;6.506;2023-02-26T06:15:14;-0.80;99.90
64715;DHT22;51144;53.002;6.506;2023-02-26T06:17:39;-0.80;99.90
64715;DHT22;51144;53.002;6.506;2023-02-26T06:20:05;-0.80;99.90
64715;DHT22;51144;53.002;6.506;2023-02-26T06:22:31;-0.80;99.90
64715;DHT22;51144;53.002;6.506;2023-02-26T06:24:56;-0.80;99.90
64715;DHT22;51144;53.002;6.506;2023-02-26T06:27:22;-0.80;99.90
64715;DHT22;51144;53.002;6.506;2023-02-26T06:29:47;-0.80;99.90
64715;DHT22;51144;53.002;6.506;2023-02-26T06:32:13;-0.80;99.90
64715;DHT22;51144;53.002;6.506;2023-02-26T06:34:39;-0.80;99.90
64715;DHT22;51144;53.002;6.506;2023-02-26T06:37:04;-0.80;99.90
64715;DHT22;51144;53.002;6.506;2023-02-26T06:39:30;-0.80;99.90
64715;DHT22;51144;53.002;6.506;2023-02-26T06:41:55;-0.80;99.90
64715;DHT22;51144;53.002;6.506;2023-02-26T06:44:21;-0.80;99.90
64715;DHT22;51144;53.002;6.506;2023-02-26T06:46:46;-0.80;99.90
64715;DHT22;51144;53.002;6.506;2023-02-26T06:49:12;-0.80;99.90
64715;DHT22;51144;53.002;6.506;2023-02-26T06:51:37;-0.80;99.90
64715;DHT22;51144;53.002;6.506;2023-02-26T06:54:03;-0.80;99.90
64715;DHT22;51144;53.002;6.506;2023-02-26T06:56:29;-0.80;99.90
64715;DHT22;51144;53.002;6.506;2023-02-26T06:58:54;-0.60;99.90
64715;DHT22;51144;53.002;6.506;2023-02-26T07:01:20;-0.30;99.90
64715;DHT22;51144;53.002;6.506;2023-02-26T16:40:27;5.30;99.90
64715;DHT22;51144;53.002;6.506;2023-02-26T16:46:00;5.10;99.90
64715;DHT22;51144;53.002;6.506;2023-02-26T16:51:13;5.10;99.90
64715;DHT22;51144;53.002;6.506;2023-02-26T16:53:56;5.00;99.90
64715;DHT22;51144;53.002;6.506;2023-02-26T16:56:31;5.00;99.90
64715;DHT22;51144;53.002;6.506;2023-02-26T16:59:11;4.90;99.90
64715;DHT22;51144;53.002;6.506;2023-02-26T17:01:45;4.90;99.90
64715;DHT22;51144;53.002;6.506;2023-02-26T17:04:14;4.90;99.90
64715;DHT22;51144;53.002;6.506;2023-02-26T17:06:41;5.00;99.90
64715;DHT22;51144;53.002;6.506;2023-02-26T17:09:24;5.00;99.90
64715;DHT22;51144;53.002;6.506;2023-02-26T17:11:50;4.90;99.90
64715;DHT22;51144;53.002;6.506;2023-02-26T17:14:22;4.90;99.90
64715;DHT22;51144;53.002;6.506;2023-02-26T17:16:49;4.80;99.90
64715;DHT22;51144;53.002;6.506;2023-02-26T17:19:16;4.80;99.90
64715;DHT22;51144;53.002;6.506;2023-02-26T17:21:45;4.70;99.90
64715;DHT22;51144;53.002;6.506;2023-02-26T17:24:22;4.60;99.90
64715;DHT22;51144;53.002;6.506;2023-02-26T17:26:49;4.60;99.90
64715;DHT22;51144;53.002;6.506;2023-02-26T17:29:18;4.50;99.90
64715;DHT22;51144;53.002;6.506;2023-02-26T17:31:47;4.50;99.90
64715;DHT22;51144;53.002;6.506;2023-02-26T17:34:13;4.40;99.90
64715;DHT22;51144;53.002;6.506;2023-02-26T17:36:39;4.40;99.90
64715;DHT22;51144;53.002;6.506;2023-02-26T17:39:05;4.40;99.90
64715;DHT22;51144;53.002;6.506;2023-02-26T17:41:31;4.40;99.90
64715;DHT22;51144;53.002;6.506;2023-02-26T17:43:58;4.40;99.90
64715;DHT22;51144;53.002;6.506;2023-02-26T17:46:24;4.40;99.90
64715;DHT22;51144;53.002;6.506;2023-02-26T17:48:50;4.30;99.90
64715;DHT22;51144;53.002;6.506;2023-02-26T17:51:15;4.30;99.90
64715;DHT22;51144;53.002;6.506;2023-02-26T17:53:41;4.30;99.90
64715;DHT22;51144;53.002;6.506;2023-02-26T17:56:15;4.30;99.90
64715;DHT22;51144;53.002;6.506;2023-02-26T17:58:41;4.30;99.90
64715;DHT22;51144;53.002;6.506;2023-02-26T18:01:08;4.30;99.90
64715;DHT22;51144;53.002;6.506;2023-02-26T18:03:34;4.30;99.90
64715;DHT22;51144;53.002;6.506;2023-02-26T18:06:00;4.30;99.90
64715;DHT22;51144;53.002;6.506;2023-02-26T18:08:31;4.30;99.90
64715;DHT22;51144;53.002;6.506;2023-02-26T18:10:59;4.20;99.90
64715;DHT22;51144;53.002;6.506;2023-02-26T18:13:25;4.10;99.90
64715;DHT22;51144;53.002;6.506;2023-02-26T18:15:52;4.10;99.90
64715;DHT22;51144;53.002;6.506;2023-02-26T18:18:19;4.10;99.90
64715;DHT22;51144;53.002;6.506;2023-02-26T18:20:45;4.00;99.90
64715;DHT22;51144;53.002;6.506;2023-02-26T18:23:12;4.00;99.90
64715;DHT22;51144;53.002;6.506;2023-02-26T18:25:39;3.90;99.90
64715;DHT22;51144;53.002;6.506;2023-02-26T18:28:08;3.90;99.90
64715;DHT22;51144;53.002;6.506;2023-02-26T18:30:36;3.90;99.90
64715;DHT22;51144;53.002;6.506;2023-02-26T18:33:05;3.80;99.90
64715;DHT22;51144;53.002;6.506;2023-02-26T18:35:31;3.70;99.90
64715;DHT22;51144;53.002;6.506;2023-02-26T18:37:57;3.70;99.90
64715;DHT22;51144;53.002;6.506;2023-02-26T18:40:24;3.60;99.90
64715;DHT22;51144;53.002;6.506;2023-02-26T18:42:51;3.60;99.90
64715;DHT22;51144;53.002;6.506;2023-02-26T18:45:17;3.60;99.90
64715;DHT22;51144;53.002;6.506;2023-02-26T18:47:44;3.70;99.90
64715;DHT22;51144;53.002;6.506;2023-02-26T18:50:12;3.60;99.90
64715;DHT22;51144;53.002;6.506;2023-02-26T18:52:38;3.60;99.90
64715;DHT22;51144;53.002;6.506;2023-02-26T18:55:04;3.60;99.90
64715;DHT22;51144;53.002;6.506;2023-02-26T18:57:31;3.60;99.90
64715;DHT22;51144;53.002;6.506;2023-02-26T18:59:58;3.60;99.90
64715;DHT22;51144;53.002;6.506;2023-02-26T19:02:24;3.50;99.90
64715;DHT22;51144;53.002;6.506;2023-02-26T19:04:50;3.40;99.90
64715;DHT22;51144;53.002;6.506;2023-02-26T19:07:16;3.40;99.90
64715;DHT22;51144;53.002;6.506;2023-02-26T19:09:42;3.40;99.90
64715;DHT22;51144;53.002;6.506;2023-02-26T19:12:08;3.40;99.90
64715;DHT22;51144;53.002;6.506;2023-02-26T19:14:34;3.40;99.90
64715;DHT22;51144;53.002;6.506;2023-02-26T19:17:00;3.40;99.90
64715;DHT22;51144;53.002;6.506;2023-02-26T19:19:26;3.40;99.90
64715;DHT22;51144;53.002;6.506;2023-02-26T19:21:52;3.30;99.90
64715;DHT22;51144;53.002;6.506;2023-02-26T19:24:18;3.30;99.90
64715;DHT22;51144;53.002;6.506;2023-02-26T19:26:44;3.20;99.90
64715;DHT22;51144;53.002;6.506;2023-02-26T19:29:15;3.20;99.90
64715;DHT22;51144;53.002;6.506;2023-02-26T19:31:41;3.20;99.90
64715;DHT22;51144;53.002;6.506;2023-02-26T19:34:07;3.10;99.90
64715;DHT22;51144;53.002;6.506;2023-02-26T19:36:33;3.10;99.90
64715;DHT22;51144;53.002;6.506;2023-02-26T19:39:03;3.10;99.90
64715;DHT22;51144;53.002;6.506;2023-02-26T19:41:30;3.10;99.90
64715;DHT22;51144;53.002;6.506;2023-02-26T19:43:56;3.00;99.90
64715;DHT22;51144;53.002;6.506;2023-02-26T19:46:22;3.00;99.90
64715;DHT22;51144;53.002;6.506;2023-02-26T19:48:48;2.90;99.90
64715;DHT22;51144;53.002;6.506;2023-02-26T19:51:14;2.90;99.90
64715;DHT22;51144;53.002;6.506;2023-02-26T19:53:40;2.90;99.90
64715;DHT22;51144;53.002;6.506;2023-02-26T19:56:05;2.90;99.90
64715;DHT22;51144;53.002;6.506;2023-02-26T19:58:32;2.80;99.90
64715;DHT22;51144;53.002;6.506;2023-02-26T20:01:00;2.80;99.90
64715;DHT22;51144;53.002;6.506;2023-02-26T20:03:26;2.80;99.90
64715;DHT22;51144;53.002;6.506;2023-02-26T20:05:52;2.70;99.90
64715;DHT22;51144;53.002;6.506;2023-02-26T20:08:19;2.70;99.90
64715;DHT22;51144;53.002;6.506;2023-02-26T20:10:49;2.60;99.90
64715;DHT22;51144;53.002;6.506;2023-02-26T20:13:15;2.60;99.90
64715;DHT22;51144;53.002;6.506;2023-02-26T20:15:41;2.60;99.90
64715;DHT22;51144;53.002;6.506;2023-02-26T20:18:07;2.50;99.90
64715;DHT22;51144;53.002;6.506;2023-02-26T20:20:33;2.50;99.90
64715;DHT22;51144;53.002;6.506;2023-02-26T20:22:59;2.40;99.90
64715;DHT22;51144;53.002;6.506;2023-02-26T20:25:25;2.40;99.90
64715;DHT22;51144;53.002;6.506;2023-02-26T20:27:51;2.30;99.90
64715;DHT22;51144;53.002;6.506;2023-02-26T20:30:17;2.30;99.90
64715;DHT22;51144;53.002;6.506;2023-02-26T20:32:44;2.20;99.90
64715;DHT22;51144;53.002;6.506;2023-02-26T20:35:10;2.10;99.90
64715;DHT22;51144;53.002;6.506;2023-02-26T20:37:36;2.10;99.90
64715;DHT22;51144;53.002;6.506;2023-02-26T20:40:02;1.90;99.90
64715;DHT22;51144;53.002;6.506;2023-02-26T20:42:29;1.80;99.90
64715;DHT22;51144;53.002;6.506;2023-02-26T20:44:55;1.70;99.90
64715;DHT22;51144;53.002;6.506;2023-02-26T20:47:20;1.50;99.90
64715;DHT22;51144;53.002;6.506;2023-02-26T20:49:46;1.40;99.90
64715;DHT22;51144;53.002;6.506;2023-02-26T20:52:12;1.30;99.90
64715;DHT22;51144;53.002;6.506;2023-02-26T20:54:37;1.20;99.90
64715;DHT22;51144;53.002;6.506;2023-02-26T20:57:03;1.10;99.90
64715;DHT22;51144;53.002;6.506;2023-02-26T20:59:29;1.10;99.90
64715;DHT22;51144;53.002;6.506;2023-02-26T21:01:55;1.00;99.90
64715;DHT22;51144;53.002;6.506;2023-02-26T21:04:22;0.90;99.90
64715;DHT22;51144;53.002;6.506;2023-02-26T21:06:48;0.90;99.90
64715;DHT22;51144;53.002;6.506;2023-02-26T21:09:14;0.90;99.90
64715;DHT22;51144;53.002;6.506;2023-02-26T21:11:41;0.90;99.90
64715;DHT22;51144;53.002;6.506;2023-02-26T21:14:08;0.90;99.90
64715;DHT22;51144;53.002;6.506;2023-02-26T21:16:35;1.00;99.90
64715;DHT22;51144;53.002;6.506;2023-02-26T21:19:01;1.00;99.90
64715;DHT22;51144;53.002;6.506;2023-02-26T21:21:28;1.20;99.90
64715;DHT22;51144;53.002;6.506;2023-02-26T21:23:54;1.20;99.90
64715;DHT22;51144;53.002;6.506;2023-02-26T21:26:21;1.30;99.90
64715;DHT22;51144;53.002;6.506;2023-02-26T21:28:48;1.30;99.90
64715;DHT22;51144;53.002;6.506;2023-02-26T21:31:17;1.30;99.90
64715;DHT22;51144;53.002;6.506;2023-02-26T21:33:43;1.30;99.90
64715;DHT22;51144;53.002;6.506;2023-02-26T21:36:09;1.30;99.90
64715;DHT22;51144;53.002;6.506;2023-02-26T21:38:36;1.30;99.90
64715;DHT22;51144;53.002;6.506;2023-02-26T21:41:03;1.40;99.90
64715;DHT22;51144;53.002;6.506;2023-02-26T21:43:28;1.40;99.90
64715;DHT22;51144;53.002;6.506;2023-02-26T21:45:54;1.50;99.90
64715;DHT22;51144;53.002;6.506;2023-02-26T21:48:20;1.50;99.90
64715;DHT22;51144;53.002;6.506;2023-02-26T21:50:45;1.50;99.90
64715;DHT22;51144;53.002;6.506;2023-02-26T21:53:12;1.60;99.90
64715;DHT22;51144;53.002;6.506;2023-02-26T21:55:38;1.60;99.90
64715;DHT22;51144;53.002;6.506;2023-02-26T21:58:03;1.60;99.90
64715;DHT22;51144;53.002;6.506;2023-02-26T22:00:30;1.60;99.90
64715;DHT22;51144;53.002;6.506;2023-02-26T22:02:55;1.50;99.90
64715;DHT22;51144;53.002;6.506;2023-02-26T22:05:21;1.50;99.90
64715;DHT22;51144;53.002;6.506;2023-02-26T22:07:47;1.50;99.90
64715;DHT22;51144;53.002;6.506;2023-02-26T22:10:13;1.40;99.90
64715;DHT22;51144;53.002;6.506;2023-02-26T22:12:38;1.30;99.90
64715;DHT22;51144;53.002;6.506;2023-02-26T22:15:04;1.30;99.90
64715;DHT22;51144;53.002;6.506;2023-02-26T22:17:30;1.20;99.90
64715;DHT22;51144;53.002;6.506;2023-02-26T22:19:56;1.20;99.90
64715;DHT22;51144;53.002;6.506;2023-02-26T22:22:22;1.10;99.90
64715;DHT22;51144;53.002;6.506;2023-02-26T22:24:48;1.10;99.90
64715;DHT22;51144;53.002;6.506;2023-02-26T22:27:13;1.10;99.90
64715;DHT22;51144;53.002;6.506;2023-02-26T22:29:39;1.00;99.90
64715;DHT22;51144;53.002;6.506;2023-02-26T22:32:05;0.90;99.90
64715;DHT22;51144;53.002;6.506;2023-02-26T22:34:32;0.80;99.90
64715;DHT22;51144;53.002;6.506;2023-02-26T22:36:59;0.80;99.90
64715;DHT22;51144;53.002;6.506;2023-02-26T22:39:26;0.80;99.90
64715;DHT22;51144;53.002;6.506;2023-02-26T22:41:51;0.80;99.90
64715;DHT22;51144;53.002;6.506;2023-02-26T22:44:17;0.80;99.90
64715;DHT22;51144;53.002;6.506;2023-02-26T22:46:43;0.70;99.90
64715;DHT22;51144;53.002;6.506;2023-02-26T22:49:09;0.70;99.90
64715;DHT22;51144;53.002;6.506;2023-02-26T22:51:34;0.70;99.90
64715;DHT22;51144;53.002;6.506;2023-02-26T22:54:00;0.70;99.90
64715;DHT22;51144;53.002;6.506;2023-02-26T22:56:26;0.70;99.90
64715;DHT22;51144;53.002;6.506;2023-02-26T22:58:52;0.70;99.90
64715;DHT22;51144;53.002;6.506;2023-02-26T23:01:18;0.70;99.90
64715;DHT22;51144;53.002;6.506;2023-02-26T23:03:43;0.70;99.90
64715;DHT22;51144;53.002;6.506;2023-02-26T23:06:10;0.70;99.90
64715;DHT22;51144;53.002;6.506;2023-02-26T23:08:36;0.70;99.90
64715;DHT22;51144;53.002;6.506;2023-02-26T23:11:02;0.70;99.90
64715;DHT22;51144;53.002;6.506;2023-02-26T23:13:29;0.70;99.90
64715;DHT22;51144;53.002;6.506;2023-02-26T23:15:56;0.60;99.90
64715;DHT22;51144;53.002;6.506;2023-02-26T23:18:22;0.60;99.90
64715;DHT22;51144;53.002;6.506;2023-02-26T23:20:48;0.50;99.90
64715;DHT22;51144;53.002;6.506;2023-02-26T23:23:14;0.50;99.90
64715;DHT22;51144;53.002;6.506;2023-02-26T23:25:43;0.40;99.90
64715;DHT22;51144;53.002;6.506;2023-02-26T23:28:09;0.40;99.90
64715;DHT22;51144;53.002;6.506;2023-02-26T23:30:35;0.20;99.90
64715;DHT22;51144;53.002;6.506;2023-02-26T23:33:01;0.20;99.90
64715;DHT22;51144;53.002;6.506;2023-02-26T23:35:28;0.20;99.90
64715;DHT22;51144;53.002;6.506;2023-02-26T23:37:54;0.20;99.90
64715;DHT22;51144;53.002;6.506;2023-02-26T23:40:19;0.10;99.90
64715;DHT22;51144;53.002;6.506;2023-02-26T23:42:45;0.10;99.90
64715;DHT22;51144;53.002;6.506;2023-02-26T23:45:11;0.10;99.90
64715;DHT22;51144;53.002;6.506;2023-02-26T23:47:37;0.00;99.90
64715;DHT22;51144;53.002;6.506;2023-02-26T23:50:04;0.00;99.90
64715;DHT22;51144;53.002;6.506;2023-02-26T23:52:31;0.00;99.90
64715;DHT22;51144;53.002;6.506;2023-02-26T23:54:57;0.00;99.90
64715;DHT22;51144;53.002;6.506;2023-02-26T23:57:23;0.00;99.90
64715;DHT22;51144;53.002;6.506;2023-02-26T23:59:49;0.00;99.90
